createdAt,value
2023-03-03T00:00:08.397Z,63.58
2023-03-03T00:03:20.107Z,59.28
2023-03-03T00:06:21.740Z,62.92
2023-03-03T00:09:23.222Z,65.75
2023-03-03T00:12:28.548Z,64.10
2023-03-03T00:15:31.255Z,64.10
2023-03-03T00:18:37.350Z,61.33
2023-03-03T00:21:45.759Z,62.15
2023-03-03T00:24:47.321Z,65.22
2023-03-03T00:27:48.820Z,61.83
2023-03-03T00:30:52.315Z,59.75
2023-03-03T00:33:55.681Z,59.65
2023-03-03T00:36:58.424Z,57.30
2023-03-03T00:40:23.827Z,65.45
2023-03-03T00:43:33.180Z,62.50
2023-03-03T00:46:37.030Z,61.50
2023-03-03T00:49:39.455Z,62.42
2023-03-03T00:52:46.188Z,61.55
2023-03-03T00:55:49.685Z,59.00
2023-03-03T00:58:52.000Z,61.40
2023-03-03T01:01:55.889Z,62.90
2023-03-03T01:04:57.610Z,61.58
2023-03-03T01:07:59.282Z,62.08
2023-03-03T01:11:08.681Z,63.17
2023-03-03T01:14:10.226Z,69.80
2023-03-03T01:17:11.837Z,61.95
2023-03-03T01:20:15.316Z,65.90
2023-03-03T01:23:16.860Z,58.53
2023-03-03T01:26:18.581Z,62.80
2023-03-03T01:29:20.303Z,58.22
2023-03-03T01:32:22.423Z,60.03
2023-03-03T01:35:24.265Z,61.10
2023-03-03T01:38:26.085Z,62.75
2023-03-03T01:41:30.072Z,66.55
2023-03-03T01:44:31.629Z,60.40
2023-03-03T01:47:34.393Z,64.47
2023-03-03T01:50:47.014Z,58.10
2023-03-03T01:53:52.949Z,59.28
2023-03-03T01:56:58.337Z,59.42
2023-03-03T02:00:02.472Z,60.70
2023-03-03T02:03:14.166Z,65.13
2023-03-03T02:06:19.397Z,65.60
2023-03-03T02:09:36.833Z,57.35
2023-03-03T02:12:51.295Z,62.85
2023-03-03T02:18:54.596Z,61.75
2023-03-03T02:21:56.528Z,64.70
2023-03-03T02:25:02.002Z,61.58
2023-03-03T02:28:04.387Z,63.75
2023-03-03T02:31:13.423Z,66.40
2023-03-03T02:34:15.886Z,62.63
2023-03-03T02:37:19.568Z,64.50
2023-03-03T02:40:24.437Z,63.85
2023-03-03T02:43:32.386Z,61.40
2023-03-03T02:46:39.681Z,66.25
2023-03-03T02:49:42.960Z,62.25
2023-03-03T02:52:44.426Z,61.07
2023-03-03T02:55:45.972Z,63.47
2023-03-03T02:58:47.421Z,60.90
2023-03-03T03:01:49.641Z,61.67
2023-03-03T03:04:53.313Z,67.50
2023-03-03T03:07:58.144Z,59.83
2023-03-03T03:10:59.853Z,64.85
2023-03-03T03:14:03.852Z,62.53
2023-03-03T03:17:05.757Z,63.70
2023-03-03T03:20:07.540Z,64.05
2023-03-03T03:23:10.186Z,67.80
2023-03-03T03:26:12.183Z,60.60
2023-03-03T03:29:13.743Z,57.50
2023-03-03T03:32:15.254Z,61.85
2023-03-03T03:35:17.514Z,63.03
2023-03-03T03:43:00.276Z,54.15
2023-03-03T03:46:01.890Z,57.63
2023-03-03T03:49:04.400Z,60.60
2023-03-03T03:52:06.062Z,61.03
2023-03-03T03:55:09.761Z,61.35
2023-03-03T03:58:14.683Z,68.45
2023-03-03T04:01:16.729Z,62.65
2023-03-03T04:04:22.738Z,59.55
2023-03-03T04:07:25.027Z,67.25
2023-03-03T04:10:26.604Z,66.43
2023-03-03T04:13:31.837Z,67.03
2023-03-03T04:16:34.755Z,63.28
2023-03-03T04:19:36.491Z,57.30
2023-03-03T04:22:40.149Z,65.07
2023-03-03T04:25:41.829Z,59.45
2023-03-03T04:28:48.759Z,61.75
2023-03-03T04:31:50.661Z,62.47
2023-03-03T04:35:05.589Z,62.20
2023-03-03T04:38:09.704Z,60.28
2023-03-03T04:41:11.898Z,60.83
2023-03-03T04:44:14.222Z,61.75
2023-03-03T04:47:15.857Z,63.70
2023-03-03T04:50:17.617Z,61.10
2023-03-03T04:53:19.235Z,65.88
2023-03-03T04:56:21.191Z,59.88
2023-03-03T04:59:23.592Z,62.47
2023-03-03T05:02:25.318Z,61.70
2023-03-03T05:05:27.229Z,60.50
2023-03-03T05:08:28.739Z,58.25
2023-03-03T05:11:30.391Z,59.70
2023-03-03T05:14:32.061Z,61.70
2023-03-03T05:17:33.568Z,61.75
2023-03-03T05:20:35.010Z,60.90
2023-03-03T05:23:36.502Z,63.10
2023-03-03T05:26:38.254Z,67.75
2023-03-03T05:29:39.923Z,65.95
2023-03-03T05:32:41.496Z,60.88
2023-03-03T05:35:43.347Z,67.95
2023-03-03T05:38:44.856Z,67.45
2023-03-03T05:41:46.391Z,65.72
2023-03-03T05:44:47.945Z,67.65
2023-03-03T05:47:49.552Z,62.88
2023-03-03T05:50:51.016Z,68.78
2023-03-03T05:53:54.722Z,62.92
2023-03-03T05:56:57.589Z,67.70
2023-03-03T05:59:59.184Z,66.13
2023-03-03T06:03:00.944Z,66.53
2023-03-03T06:06:02.431Z,64.07
2023-03-03T06:09:03.962Z,61.63
2023-03-03T06:12:05.923Z,66.63
2023-03-03T06:15:08.546Z,73.53
2023-03-03T06:18:10.127Z,61.10
2023-03-03T06:21:11.730Z,66.90
2023-03-03T06:24:13.161Z,65.28
2023-03-03T06:27:14.629Z,60.63
2023-03-03T06:30:16.565Z,65.95
2023-03-03T06:33:18.031Z,60.33
2023-03-03T06:36:20.353Z,58.50
2023-03-03T06:39:21.823Z,67.72
2023-03-03T06:42:24.848Z,62.05
2023-03-03T06:45:26.334Z,63.90
2023-03-03T06:48:28.448Z,62.42
2023-03-03T06:51:35.422Z,64.95
2023-03-03T06:54:36.936Z,67.22
2023-03-03T06:57:38.577Z,63.80
2023-03-03T07:00:44.023Z,64.90
2023-03-03T07:03:45.757Z,73.22
2023-03-03T07:06:47.197Z,63.28
2023-03-03T07:09:51.445Z,75.55
2023-03-03T07:16:00.617Z,60.03
2023-03-03T07:19:03.547Z,64.50
2023-03-03T07:22:13.770Z,62.80
2023-03-03T07:25:26.797Z,64.22
2023-03-03T07:28:32.689Z,62.22
2023-03-03T07:31:37.546Z,57.95
2023-03-03T07:34:45.061Z,60.33
2023-03-03T07:37:46.692Z,60.65
2023-03-03T07:40:51.345Z,57.90
2023-03-03T07:44:00.082Z,58.72
2023-03-03T07:47:17.699Z,63.70
2023-03-03T07:50:21.552Z,60.83
2023-03-03T07:53:34.878Z,65.65
2023-03-03T07:56:36.712Z,69.40
2023-03-03T07:59:42.179Z,61.03
2023-03-03T08:02:56.491Z,67.85
2023-03-03T08:05:57.914Z,57.53
2023-03-03T08:09:24.744Z,64.70
2023-03-03T08:12:42.188Z,60.35
2023-03-03T08:15:45.573Z,60.25
2023-03-03T08:18:49.486Z,67.47
2023-03-03T08:21:52.009Z,59.28
2023-03-03T08:24:53.499Z,64.65
2023-03-03T08:27:55.030Z,61.00
2023-03-03T08:31:12.538Z,60.03
2023-03-03T08:34:18.115Z,60.00
2023-03-03T08:37:19.616Z,60.65
2023-03-03T08:40:21.200Z,57.22
2023-03-03T08:43:22.857Z,56.45
2023-03-03T08:46:24.364Z,57.72
2023-03-03T08:49:25.867Z,60.75
2023-03-03T08:52:27.298Z,58.10
2023-03-03T08:55:28.809Z,63.17
2023-03-03T08:58:35.497Z,57.55
2023-03-03T09:01:37.778Z,58.97
2023-03-03T09:04:39.560Z,57.33
2023-03-03T09:07:41.525Z,59.35
2023-03-03T09:10:43.036Z,62.15
2023-03-03T09:13:44.531Z,58.70
2023-03-03T09:16:50.803Z,55.42
2023-03-03T09:19:54.811Z,75.57
2023-03-03T09:22:56.476Z,60.50
2023-03-03T09:26:26.880Z,60.75
2023-03-03T09:29:37.778Z,54.67
2023-03-03T09:32:39.558Z,54.60
2023-03-03T09:35:42.463Z,55.38
2023-03-03T09:38:45.933Z,63.95
2023-03-03T09:42:12.255Z,56.83
2023-03-03T09:45:15.143Z,68.85
2023-03-03T09:48:30.523Z,58.60
2023-03-03T09:51:41.606Z,56.10
2023-03-03T09:54:54.245Z,52.95
2023-03-03T09:58:10.874Z,62.45
2023-03-03T10:01:34.714Z,58.83
2023-03-03T10:04:39.337Z,56.40
2023-03-03T10:08:31.696Z,58.33
2023-03-03T10:11:54.616Z,59.83
2023-03-03T10:15:03.466Z,64.78
2023-03-03T10:18:29.286Z,59.97
2023-03-03T10:21:43.740Z,58.22
2023-03-03T10:28:40.442Z,62.97
2023-03-03T10:31:57.300Z,67.38
2023-03-03T10:35:18.822Z,76.68
2023-03-03T10:38:44.044Z,62.90
2023-03-03T10:42:08.655Z,59.05
2023-03-03T10:45:32.062Z,64.80
2023-03-03T10:49:01.195Z,62.10
2023-03-03T10:52:31.742Z,58.53
2023-03-03T10:55:50.022Z,56.85
2023-03-03T10:59:13.318Z,61.22
2023-03-03T11:02:34.153Z,56.05
2023-03-03T11:05:50.722Z,62.88
2023-03-03T11:09:03.098Z,58.45
2023-03-03T11:12:21.474Z,61.97
2023-03-03T11:15:41.475Z,56.55
2023-03-03T11:18:55.128Z,63.17
2023-03-03T11:22:23.741Z,60.37
2023-03-03T11:25:44.011Z,69.88
2023-03-03T11:29:07.026Z,60.20
2023-03-03T11:32:32.878Z,64.07
2023-03-03T11:35:44.290Z,60.90
2023-03-03T11:39:01.119Z,62.67
2023-03-03T11:42:23.619Z,69.07
2023-03-03T11:45:34.186Z,66.70
2023-03-03T11:48:42.555Z,62.78
2023-03-03T11:52:06.425Z,63.40
2023-03-03T11:55:22.545Z,61.80
2023-03-03T11:58:30.957Z,65.22
2023-03-03T12:01:39.253Z,64.10
2023-03-03T12:04:51.957Z,63.15
2023-03-03T12:08:18.117Z,62.90
2023-03-03T12:11:23.176Z,65.07
2023-03-03T12:15:06.837Z,63.95
2023-03-03T12:18:31.645Z,62.45
2023-03-03T12:21:33.137Z,63.78
2023-03-03T12:24:34.557Z,64.15
2023-03-03T12:27:41.205Z,66.68
2023-03-03T12:30:58.188Z,65.28
2023-03-03T12:34:08.773Z,63.17
2023-03-03T12:37:28.643Z,62.47
2023-03-03T12:40:38.244Z,60.90
2023-03-03T12:43:51.480Z,62.88
2023-03-03T12:47:09.924Z,59.53
2023-03-03T12:50:23.243Z,61.38
2023-03-03T12:53:33.841Z,68.53
2023-03-03T12:56:55.176Z,62.45
2023-03-03T13:00:23.058Z,62.85
2023-03-03T13:03:54.919Z,67.32
2023-03-03T13:07:12.568Z,63.00
2023-03-03T13:10:24.514Z,67.35
2023-03-03T13:13:39.979Z,66.60
2023-03-03T13:17:15.231Z,64.45
2023-03-03T13:20:30.173Z,62.72
2023-03-03T13:23:52.456Z,65.97
2023-03-03T13:26:58.589Z,64.20
2023-03-03T13:30:14.521Z,65.00
2023-03-03T13:33:25.574Z,61.13
2023-03-03T13:36:59.010Z,64.80
2023-03-03T13:40:11.080Z,59.03
2023-03-03T13:43:22.232Z,65.20
2023-03-03T13:46:33.943Z,62.65
2023-03-03T13:49:53.976Z,70.40
2023-03-03T13:53:17.520Z,66.20
2023-03-03T13:56:49.679Z,64.97
2023-03-03T14:00:15.833Z,62.53
2023-03-03T14:03:26.370Z,64.95
2023-03-03T14:06:29.393Z,60.45
2023-03-03T14:09:55.513Z,62.25
2023-03-03T14:13:05.846Z,66.22
2023-03-03T14:16:16.378Z,66.20
2023-03-03T14:19:45.255Z,63.00
2023-03-03T14:22:54.652Z,65.95
2023-03-03T14:26:05.369Z,63.03
2023-03-03T14:29:21.780Z,65.35
2023-03-03T14:32:39.366Z,64.88
2023-03-03T14:35:57.178Z,65.25
2023-03-03T14:38:59.014Z,63.22
2023-03-03T14:42:02.372Z,64.95
2023-03-03T14:45:29.055Z,65.53
2023-03-03T14:48:32.831Z,66.85
2023-03-03T14:51:43.360Z,62.70
2023-03-03T14:55:27.736Z,65.82
2023-03-03T14:58:41.469Z,67.45
2023-03-03T15:01:43.370Z,66.27
2023-03-03T15:04:46.409Z,60.47
2023-03-03T15:08:14.369Z,64.32
2023-03-03T15:11:21.270Z,63.78
2023-03-03T15:14:31.915Z,61.13
2023-03-03T15:17:54.153Z,64.35
2023-03-03T15:21:10.572Z,63.85
2023-03-03T15:24:34.367Z,64.65
2023-03-03T15:27:44.278Z,67.73
2023-03-03T15:30:53.420Z,67.65
2023-03-03T15:34:11.242Z,71.03
2023-03-03T15:37:24.932Z,63.75
2023-03-03T15:40:45.978Z,61.80
2023-03-03T15:44:06.409Z,71.43
2023-03-03T15:47:44.781Z,63.03
2023-03-03T15:51:20.576Z,70.22
2023-03-03T15:54:37.092Z,63.00
2023-03-03T15:57:41.699Z,68.80
2023-03-03T16:01:20.247Z,68.93
2023-03-03T16:04:26.153Z,68.55
2023-03-03T16:07:45.192Z,67.35
2023-03-03T16:10:55.636Z,72.63
2023-03-03T16:14:15.703Z,69.18
2023-03-03T16:17:30.312Z,74.88
2023-03-03T16:20:57.331Z,74.03
2023-03-03T16:24:08.609Z,73.93
2023-03-03T16:27:35.924Z,68.57
2023-03-03T16:31:03.093Z,65.97
2023-03-03T16:34:17.677Z,74.38
2023-03-03T16:37:34.650Z,70.70
2023-03-03T16:40:47.237Z,73.35
2023-03-03T16:44:12.918Z,74.97
2023-03-03T16:47:41.114Z,69.22
2023-03-03T16:51:04.144Z,71.22
2023-03-03T16:54:16.532Z,70.32
2023-03-03T16:57:56.694Z,70.72
2023-03-03T17:01:16.809Z,73.55
2023-03-03T17:04:39.516Z,74.82
2023-03-03T17:08:21.816Z,70.40
2023-03-03T17:11:43.413Z,74.78
2023-03-03T17:15:09.474Z,74.97
2023-03-03T17:18:54.441Z,67.13
2023-03-03T17:22:12.664Z,73.72
2023-03-03T17:25:24.697Z,73.68
2023-03-03T17:28:34.680Z,81.25
2023-03-03T17:31:45.176Z,77.32
2023-03-03T17:34:58.728Z,78.60
2023-03-03T17:38:26.710Z,82.13
2023-03-03T17:41:31.090Z,74.80
2023-03-03T17:44:55.856Z,73.90
2023-03-03T17:51:30.265Z,79.13
2023-03-03T17:55:04.455Z,117.15
2023-03-03T17:58:23.012Z,89.57
2023-03-03T18:01:48.889Z,79.93
2023-03-03T18:05:37.326Z,77.18
2023-03-03T18:09:15.629Z,70.82
2023-03-03T18:12:36.301Z,73.20
2023-03-03T18:16:11.091Z,75.20
2023-03-03T18:19:56.479Z,74.38
2023-03-03T18:23:17.660Z,70.00
2023-03-03T18:26:36.030Z,73.28
2023-03-03T18:29:37.668Z,74.32
2023-03-03T18:33:06.121Z,74.70
2023-03-03T18:36:37.372Z,78.82
2023-03-03T18:39:44.296Z,73.63
2023-03-03T18:42:46.386Z,72.18
2023-03-03T18:45:50.451Z,80.32
2023-03-03T18:49:08.081Z,73.15
2023-03-03T18:52:32.921Z,75.65
2023-03-03T18:55:43.860Z,77.95
2023-03-03T18:58:45.331Z,85.22
2023-03-03T19:01:48.486Z,80.00
2023-03-03T19:05:12.383Z,73.03
2023-03-03T19:08:57.905Z,68.03
2023-03-03T19:11:59.365Z,72.78
2023-03-03T19:15:00.897Z,67.97
2023-03-03T19:18:17.409Z,74.43
2023-03-03T19:21:24.997Z,88.20
2023-03-03T19:24:30.571Z,79.15
2023-03-03T19:30:56.385Z,78.85
2023-03-03T19:33:57.929Z,77.00
2023-03-03T19:37:07.408Z,69.82
2023-03-03T19:40:14.538Z,78.72
2023-03-03T19:43:40.822Z,146.20
2023-03-03T19:47:01.535Z,82.20
2023-03-03T19:50:18.477Z,77.07
2023-03-03T19:53:42.823Z,69.70
2023-03-03T19:56:52.681Z,69.72
2023-03-03T20:00:26.896Z,72.28
2023-03-03T20:03:52.851Z,72.95
2023-03-03T20:07:00.001Z,77.95
2023-03-03T20:10:08.192Z,83.22
2023-03-03T20:13:16.357Z,76.75
2023-03-03T20:16:40.659Z,77.35
2023-03-03T20:20:01.970Z,78.18
2023-03-03T20:23:27.441Z,79.32
2023-03-03T20:26:52.079Z,80.38
2023-03-03T20:33:11.400Z,74.30
2023-03-03T20:36:25.005Z,65.32
2023-03-03T20:39:38.465Z,91.57
2023-03-03T20:42:56.541Z,80.43
2023-03-03T20:46:10.163Z,71.95
2023-03-03T20:49:30.381Z,77.32
2023-03-03T20:52:40.745Z,74.15
2023-03-03T20:56:00.974Z,79.05
2023-03-03T20:59:21.190Z,86.15
2023-03-03T21:02:46.933Z,84.95
2023-03-03T21:06:09.310Z,78.80
2023-03-03T21:09:32.879Z,79.28
2023-03-03T21:12:34.474Z,88.95
2023-03-03T21:15:36.011Z,82.00
2023-03-03T21:18:37.643Z,80.30
2023-03-03T21:21:41.966Z,85.57
2023-03-03T21:24:50.530Z,83.10
2023-03-03T21:27:52.045Z,84.10
2023-03-03T21:31:09.026Z,78.20
2023-03-03T21:34:22.260Z,78.82
2023-03-03T21:37:55.406Z,78.22
2023-03-03T21:41:00.812Z,85.50
2023-03-03T21:44:22.295Z,85.95
2023-03-03T21:47:28.614Z,84.22
2023-03-03T21:50:32.623Z,72.78
2023-03-03T21:53:34.796Z,81.63
2023-03-03T21:56:37.872Z,82.13
2023-03-03T21:59:40.031Z,80.20
2023-03-03T22:02:41.433Z,82.20
2023-03-03T22:05:42.890Z,79.93
2023-03-03T22:08:44.402Z,81.85
2023-03-03T22:11:45.927Z,75.55
2023-03-03T22:14:47.565Z,72.90
2023-03-03T22:17:49.058Z,83.75
2023-03-03T22:20:50.647Z,69.75
2023-03-03T22:23:52.145Z,74.53
2023-03-03T22:26:53.691Z,71.05
2023-03-03T22:29:55.178Z,67.82
2023-03-03T22:32:56.780Z,68.38
2023-03-03T22:35:58.527Z,79.40
2023-03-03T22:39:00.988Z,68.50
2023-03-03T22:42:02.481Z,77.22
2023-03-03T22:45:04.426Z,70.05
2023-03-03T22:48:06.382Z,78.85
2023-03-03T22:51:07.918Z,77.10
2023-03-03T22:54:09.512Z,80.88
2023-03-03T22:57:10.995Z,79.03
2023-03-03T23:00:13.465Z,65.57
2023-03-03T23:03:15.922Z,66.43
2023-03-03T23:06:17.433Z,76.22
2023-03-03T23:09:18.950Z,70.30
2023-03-03T23:12:20.383Z,67.47
2023-03-03T23:15:22.459Z,72.72
2023-03-03T23:18:23.965Z,71.07
2023-03-03T23:21:25.427Z,72.68
2023-03-03T23:24:27.007Z,67.03
2023-03-03T23:27:28.602Z,63.90
2023-03-03T23:30:30.057Z,73.90
2023-03-03T23:33:31.461Z,66.28
2023-03-03T23:36:32.914Z,70.93
2023-03-03T23:39:34.417Z,69.30
2023-03-03T23:42:35.858Z,93.90
2023-03-03T23:45:37.318Z,89.90
2023-03-03T23:48:38.776Z,73.40
2023-03-03T23:51:40.313Z,61.95
2023-03-03T23:54:41.736Z,59.28
2023-03-03T23:57:43.338Z,59.95
